Time;durP1;ratioP1;P1;durP2;ratioP2;P2;SDS_P1;SDS_P2;PMS_P1;PMS_P2;Temp;Humidity;BMP_temperature;BMP_pressure;BME280_temperature;BME280_humidity;BME280_pressure;Samples;Min_cycle;Max_cycle;Signal;HPM_P1;HPM_P2
2021/03/21 00:00:55;;;;;;;;;;;22.90;36.50;;;;;;1565426;74;770;-58
2021/03/21 00:02:57;;;;;;;;;;;23.00;36.40;;;;;;1556780;74;1164;-60
2021/03/21 00:04:59;;;;;;;;;;;23.00;36.50;;;;;;1548384;74;765;-59
2021/03/21 00:07:01;;;;;;;;;;;23.00;36.50;;;;;;1547856;74;759;-60
2021/03/21 00:09:03;;;;;;;;;;;23.10;36.70;;;;;;1551869;74;770;-59
2021/03/21 00:11:06;;;;;;;;;;;23.10;36.70;;;;;;1547558;74;1943;-59
2021/03/21 00:13:08;;;;;;;;;;;23.10;36.60;;;;;;1542113;74;1464;-59
2021/03/21 00:15:10;;;;;;;;;;;23.10;36.60;;;;;;1547404;74;759;-59
2021/03/21 00:17:12;;;;;;;;;;;23.20;36.60;;;;;;1551038;74;670;-59
2021/03/21 00:19:13;;;;;;;;;;;23.20;36.60;;;;;;1546177;74;831;-60
2021/03/21 00:21:15;;;;;;;;;;;23.20;36.50;;;;;;1547926;74;798;-58
2021/03/21 00:23:17;;;;;;;;;;;23.20;36.40;;;;;;1552484;74;1143;-59
2021/03/21 00:25:20;;;;;;;;;;;23.20;36.30;;;;;;1553031;74;761;-59
2021/03/21 00:27:21;;;;;;;;;;;23.30;36.40;;;;;;1551728;74;635;-60
2021/03/21 00:29:23;;;;;;;;;;;23.30;36.40;;;;;;1554937;74;764;-59
2021/03/21 00:31:25;;;;;;;;;;;23.20;36.30;;;;;;1557103;74;1943;-60
2021/03/21 00:33:28;;;;;;;;;;;23.30;36.30;;;;;;1555986;74;770;-58
2021/03/21 00:35:30;;;;;;;;;;;23.30;36.10;;;;;;1548858;74;774;-61
2021/03/21 00:37:31;;;;;;;;;;;23.30;36.20;;;;;;1556658;74;713;-59
2021/03/21 00:39:33;;;;;;;;;;;23.20;35.90;;;;;;1557869;74;761;-59
2021/03/21 00:41:35;;;;;;;;;;;23.30;36.00;;;;;;1552142;74;1144;-60
2021/03/21 00:43:37;;;;;;;;;;;23.10;35.80;;;;;;1549119;74;759;-60
2021/03/21 00:45:39;;;;;;;;;;;23.30;35.70;;;;;;1553822;74;802;-61
2021/03/21 00:47:41;;;;;;;;;;;23.40;35.50;;;;;;1558138;74;748;-59
2021/03/21 00:49:43;;;;;;;;;;;23.40;35.40;;;;;;1549138;74;730;-59
2021/03/21 00:51:45;;;;;;;;;;;23.40;35.30;;;;;;1550414;74;1937;-57
2021/03/21 00:53:47;;;;;;;;;;;23.40;35.20;;;;;;1554388;74;788;-60
2021/03/21 00:55:49;;;;;;;;;;;23.40;35.20;;;;;;1553131;74;714;-60
2021/03/21 00:57:51;;;;;;;;;;;23.40;35.50;;;;;;1558668;74;672;-59
2021/03/21 00:59:53;;;;;;;;;;;23.40;35.60;;;;;;1558266;74;701;-59
2021/03/21 01:01:55;;;;;;;;;;;23.30;35.70;;;;;;1551011;74;1183;-59
2021/03/21 01:03:57;;;;;;;;;;;23.20;35.80;;;;;;1555381;74;808;-58
2021/03/21 01:05:59;;;;;;;;;;;23.20;36.00;;;;;;1553615;74;782;-60
2021/03/21 01:08:01;;;;;;;;;;;23.20;36.20;;;;;;1552252;74;780;-60
2021/03/21 01:10:04;;;;;;;;;;;23.20;36.10;;;;;;1559041;74;679;-59
2021/03/21 01:12:06;;;;;;;;;;;23.30;36.20;;;;;;1553225;74;1941;-60
2021/03/21 01:14:08;;;;;;;;;;;23.30;36.30;;;;;;1548534;74;741;-59
2021/03/21 01:16:11;;;;;;;;;;;23.30;36.40;;;;;;1558090;74;755;-60
2021/03/21 01:18:20;;;;;;;;;;;23.30;36.30;;;;;;1554087;74;674;-59
2021/03/21 01:20:23;;;;;;;;;;;23.20;36.20;;;;;;1552101;74;690;-60
2021/03/21 01:22:25;;;;;;;;;;;23.20;36.30;;;;;;1554069;74;1215;-59
2021/03/21 01:24:27;;;;;;;;;;;23.20;36.30;;;;;;1552002;74;792;-59
2021/03/21 01:26:28;;;;;;;;;;;23.20;36.40;;;;;;1551236;74;726;-59
2021/03/21 01:28:31;;;;;;;;;;;23.10;36.50;;;;;;1552858;74;633;-59
2021/03/21 01:30:33;;;;;;;;;;;23.10;36.60;;;;;;1554051;74;791;-60
2021/03/21 01:32:35;;;;;;;;;;;23.10;36.60;;;;;;1553387;74;1950;-60
2021/03/21 01:34:37;;;;;;;;;;;23.10;36.80;;;;;;1564126;74;807;-59
2021/03/21 01:36:39;;;;;;;;;;;23.10;36.70;;;;;;1551441;74;754;-58
2021/03/21 01:38:41;;;;;;;;;;;23.10;36.70;;;;;;1559375;74;757;-60
2021/03/21 01:40:43;;;;;;;;;;;23.10;36.60;;;;;;1555120;74;680;-59
2021/03/21 01:42:46;;;;;;;;;;;23.10;36.70;;;;;;1554021;74;1154;-60
2021/03/21 01:44:48;;;;;;;;;;;23.10;36.80;;;;;;1555911;74;781;-60
2021/03/21 01:46:51;;;;;;;;;;;23.10;36.80;;;;;;1552951;74;777;-58
2021/03/21 01:48:55;;;;;;;;;;;23.00;37.00;;;;;;1557834;74;1092;-58
2021/03/21 01:50:58;;;;;;;;;;;23.10;37.00;;;;;;1555898;74;1422;-58
2021/03/21 01:53:00;;;;;;;;;;;23.00;36.80;;;;;;1560046;74;1943;-57
2021/03/21 01:55:02;;;;;;;;;;;23.10;36.90;;;;;;1532924;76;767;-59
2021/03/21 01:57:04;;;;;;;;;;;23.10;36.90;;;;;;1555204;74;745;-60
2021/03/21 01:59:10;;;;;;;;;;;23.10;36.80;;;;;;1551063;74;808;-58
2021/03/21 02:01:16;;;;;;;;;;;23.10;36.80;;;;;;1554957;74;974;-59
2021/03/21 02:03:18;;;;;;;;;;;23.20;36.80;;;;;;1555853;74;1081;-60
2021/03/21 02:05:20;;;;;;;;;;;23.20;36.60;;;;;;1554910;74;781;-60
2021/03/21 02:07:40;;;;;;;;;;;23.20;36.60;;;;;;1550911;74;741;-58
2021/03/21 02:09:43;;;;;;;;;;;23.20;36.50;;;;;;1554199;74;771;-59
2021/03/21 02:11:47;;;;;;;;;;;23.20;36.50;;;;;;1556305;74;1945;-59
2021/03/21 02:14:02;;;;;;;;;;;23.30;36.60;;;;;;1561596;74;766;-60
2021/03/21 02:16:06;;;;;;;;;;;23.20;36.40;;;;;;1551058;74;715;-60
2021/03/21 02:18:21;;;;;;;;;;;23.30;36.50;;;;;;1558476;74;746;-59
2021/03/21 02:20:31;;;;;;;;;;;23.30;36.50;;;;;;1550738;74;779;-60
2021/03/21 02:22:33;;;;;;;;;;;23.30;36.40;;;;;;1553535;74;1209;-60
2021/03/21 02:24:49;;;;;;;;;;;23.40;36.30;;;;;;1551281;74;744;-59
2021/03/21 02:27:01;;;;;;;;;;;23.40;36.40;;;;;;1548376;74;782;-59
2021/03/21 02:29:20;;;;;;;;;;;23.40;36.50;;;;;;1559273;74;829;-58
2021/03/21 02:31:26;;;;;;;;;;;23.40;36.80;;;;;;1553664;74;1942;-59
2021/03/21 02:33:29;;;;;;;;;;;23.30;37.00;;;;;;1550922;74;751;-59
2021/03/21 02:35:33;;;;;;;;;;;23.30;37.00;;;;;;1552058;74;748;-61
2021/03/21 02:37:52;;;;;;;;;;;23.40;37.00;;;;;;1550147;74;753;-60
2021/03/21 02:39:55;;;;;;;;;;;23.40;37.00;;;;;;1550376;74;804;-60
2021/03/21 02:42:01;;;;;;;;;;;23.40;37.00;;;;;;1555643;74;1346;-59
2021/03/21 02:44:08;;;;;;;;;;;23.40;37.10;;;;;;1551533;74;726;-60
2021/03/21 02:46:11;;;;;;;;;;;23.30;37.10;;;;;;1549149;74;1553;-59
2021/03/21 02:48:15;;;;;;;;;;;23.40;37.10;;;;;;1559746;74;655;-57
2021/03/21 02:50:18;;;;;;;;;;;23.40;37.10;;;;;;1546938;74;770;-59
2021/03/21 02:52:25;;;;;;;;;;;23.40;37.10;;;;;;1558480;74;1979;-59
2021/03/21 02:54:27;;;;;;;;;;;23.40;36.90;;;;;;1553076;74;798;-59
2021/03/21 02:56:29;;;;;;;;;;;23.50;37.10;;;;;;1552225;74;766;-60
2021/03/21 02:58:49;;;;;;;;;;;23.50;37.10;;;;;;1560574;74;754;-58
2021/03/21 03:00:58;;;;;;;;;;;23.40;36.90;;;;;;1562987;74;786;-59
2021/03/21 03:03:00;;;;;;;;;;;23.40;37.00;;;;;;1559227;74;1179;-60
2021/03/21 03:05:07;;;;;;;;;;;23.40;36.90;;;;;;1561500;74;736;-60
2021/03/21 03:07:10;;;;;;;;;;;23.30;37.00;;;;;;1562543;74;774;-60
2021/03/21 03:09:20;;;;;;;;;;;23.30;37.00;;;;;;1562675;74;743;-59
2021/03/21 03:11:32;;;;;;;;;;;23.20;37.00;;;;;;1552298;74;754;-60
2021/03/21 03:13:39;;;;;;;;;;;23.30;37.20;;;;;;1537608;74;1413;-60
2021/03/21 03:15:40;;;;;;;;;;;23.30;37.10;;;;;;1552927;74;664;-58
2021/03/21 03:17:44;;;;;;;;;;;23.20;37.10;;;;;;1562857;74;748;-59
2021/03/21 03:19:53;;;;;;;;;;;23.30;37.40;;;;;;1561825;74;1520;-59
2021/03/21 03:22:06;;;;;;;;;;;23.20;37.40;;;;;;1561612;74;1208;-58
2021/03/21 03:24:09;;;;;;;;;;;23.30;37.20;;;;;;1550813;74;679;-59
2021/03/21 03:26:13;;;;;;;;;;;23.30;37.20;;;;;;1551921;74;1476;-57
2021/03/21 03:28:16;;;;;;;;;;;23.30;37.10;;;;;;1556052;74;1692;-61
2021/03/21 03:30:18;;;;;;;;;;;23.40;37.00;;;;;;1556729;74;1181;-59
2021/03/21 03:32:20;;;;;;;;;;;23.30;37.00;;;;;;1566196;74;1934;-59
2021/03/21 03:34:22;;;;;;;;;;;23.40;37.10;;;;;;1554012;74;781;-59
2021/03/21 03:36:24;;;;;;;;;;;23.40;37.10;;;;;;1560568;74;762;-59
2021/03/21 03:38:26;;;;;;;;;;;23.40;37.10;;;;;;1562238;74;796;-60
2021/03/21 03:40:28;;;;;;;;;;;23.30;37.10;;;;;;1558172;74;822;-59
2021/03/21 03:42:47;;;;;;;;;;;23.30;37.10;;;;;;1557513;75;1176;-59
2021/03/21 03:45:02;;;;;;;;;;;23.30;37.10;;;;;;1561534;74;743;-60
2021/03/21 03:47:20;;;;;;;;;;;23.30;37.20;;;;;;1558253;74;747;-58
2021/03/21 03:49:29;;;;;;;;;;;23.30;37.30;;;;;;1560377;74;747;-59
2021/03/21 03:51:49;;;;;;;;;;;23.40;37.20;;;;;;1558349;74;1178;-58
2021/03/21 03:53:53;;;;;;;;;;;23.30;36.80;;;;;;1554719;74;734;-59
2021/03/21 03:55:58;;;;;;;;;;;23.20;36.50;;;;;;1551648;74;769;-59
2021/03/21 03:58:05;;;;;;;;;;;23.20;36.10;;;;;;1558122;74;784;-59
2021/03/21 04:00:09;;;;;;;;;;;23.20;36.00;;;;;;1552123;74;654;-58
2021/03/21 04:02:14;;;;;;;;;;;23.20;35.70;;;;;;1556272;74;1169;-59
2021/03/21 04:04:34;;;;;;;;;;;23.20;35.50;;;;;;1553992;74;824;-59
2021/03/21 04:06:36;;;;;;;;;;;23.20;35.50;;;;;;1553955;74;743;-59
2021/03/21 04:08:40;;;;;;;;;;;23.20;35.40;;;;;;1553586;74;757;-59
2021/03/21 04:10:49;;;;;;;;;;;23.20;35.20;;;;;;1551363;74;667;-59
2021/03/21 04:12:53;;;;;;;;;;;23.20;35.20;;;;;;1553351;74;1978;-60
2021/03/21 04:14:56;;;;;;;;;;;23.20;35.10;;;;;;1551505;74;1479;-60
2021/03/21 04:17:05;;;;;;;;;;;23.20;35.00;;;;;;1553959;74;740;-60
2021/03/21 04:19:08;;;;;;;;;;;23.20;35.00;;;;;;1547204;74;1576;-59
2021/03/21 04:21:24;;;;;;;;;;;23.20;35.00;;;;;;1553754;74;750;-59
2021/03/21 04:23:30;;;;;;;;;;;23.20;35.00;;;;;;1551325;74;1256;-59
2021/03/21 04:25:34;;;;;;;;;;;23.20;35.10;;;;;;1549749;74;1193;-59
2021/03/21 04:27:43;;;;;;;;;;;23.30;35.30;;;;;;1551880;74;1037;-59
2021/03/21 04:29:50;;;;;;;;;;;23.30;35.00;;;;;;1548060;74;763;-58
2021/03/21 04:31:52;;;;;;;;;;;23.20;34.90;;;;;;1546573;74;1192;-59
2021/03/21 04:33:55;;;;;;;;;;;23.20;34.70;;;;;;1548411;75;1944;-58
2021/03/21 04:35:58;;;;;;;;;;;23.30;34.60;;;;;;1546657;74;804;-58
2021/03/21 04:38:04;;;;;;;;;;;23.30;34.40;;;;;;1545966;74;752;-60
2021/03/21 04:40:06;;;;;;;;;;;23.30;34.50;;;;;;1551340;76;721;-59
2021/03/21 04:42:09;;;;;;;;;;;23.20;34.30;;;;;;1555358;76;1193;-59
2021/03/21 04:44:18;;;;;;;;;;;23.20;34.20;;;;;;1551630;74;777;-59
2021/03/21 04:46:21;;;;;;;;;;;23.20;34.20;;;;;;1550451;74;759;-60
2021/03/21 04:48:24;;;;;;;;;;;23.30;34.10;;;;;;1548912;74;1083;-58
2021/03/21 04:50:26;;;;;;;;;;;23.20;34.00;;;;;;1559621;74;731;-59
2021/03/21 04:52:32;;;;;;;;;;;23.30;34.20;;;;;;1549902;74;1961;-59
2021/03/21 04:54:35;;;;;;;;;;;23.20;34.00;;;;;;1558520;74;781;-59
2021/03/21 04:56:38;;;;;;;;;;;23.30;33.90;;;;;;1549912;74;732;-59
2021/03/21 04:58:44;;;;;;;;;;;23.20;33.80;;;;;;1553302;74;758;-59
2021/03/21 05:00:47;;;;;;;;;;;23.30;33.80;;;;;;1553203;74;726;-59
2021/03/21 05:02:49;;;;;;;;;;;23.20;33.80;;;;;;1551462;74;1197;-60
2021/03/21 05:04:53;;;;;;;;;;;23.20;33.70;;;;;;1551902;74;716;-59
2021/03/21 05:06:59;;;;;;;;;;;23.20;33.80;;;;;;1546910;74;1011;-58
2021/03/21 05:09:02;;;;;;;;;;;23.30;34.00;;;;;;1552662;74;664;-59
2021/03/21 05:11:04;;;;;;;;;;;23.20;33.80;;;;;;1550666;74;778;-59
2021/03/21 05:13:26;;;;;;;;;;;23.20;34.00;;;;;;1549243;74;1949;-59
2021/03/21 05:15:29;;;;;;;;;;;23.20;33.90;;;;;;1560245;74;756;-59
2021/03/21 05:17:33;;;;;;;;;;;23.30;34.10;;;;;;1548776;74;745;-59
2021/03/21 05:19:36;;;;;;;;;;;23.20;33.90;;;;;;1554666;75;801;-59
2021/03/21 05:21:49;;;;;;;;;;;23.30;33.90;;;;;;1545050;74;1272;-58
2021/03/21 05:23:53;;;;;;;;;;;23.30;34.00;;;;;;1549034;74;989;-60
2021/03/21 05:25:59;;;;;;;;;;;23.30;34.00;;;;;;1550683;74;741;-58
2021/03/21 05:28:17;;;;;;;;;;;23.30;34.00;;;;;;1555370;74;1655;-59
2021/03/21 05:30:21;;;;;;;;;;;23.30;34.00;;;;;;1547299;74;1203;-59
2021/03/21 05:32:22;;;;;;;;;;;23.20;33.80;;;;;;1554321;76;1954;-57
2021/03/21 05:34:24;;;;;;;;;;;23.30;33.80;;;;;;1548069;74;698;-60
2021/03/21 05:36:28;;;;;;;;;;;23.30;33.80;;;;;;1530624;76;761;-59
2021/03/21 05:38:34;;;;;;;;;;;23.30;33.60;;;;;;1552855;74;766;-59
2021/03/21 05:40:54;;;;;;;;;;;23.30;33.40;;;;;;1552796;74;1190;-60
2021/03/21 05:42:57;;;;;;;;;;;23.30;33.90;;;;;;1548927;74;1189;-59
2021/03/21 05:45:17;;;;;;;;;;;23.30;33.60;;;;;;1552456;74;1557;-58
2021/03/21 05:47:21;;;;;;;;;;;23.30;33.60;;;;;;1547499;74;777;-60
2021/03/21 05:49:27;;;;;;;;;;;23.30;33.40;;;;;;1556509;74;1142;-60
2021/03/21 05:51:43;;;;;;;;;;;23.30;33.30;;;;;;1545143;74;1165;-59
2021/03/21 05:53:49;;;;;;;;;;;23.40;33.40;;;;;;1551858;74;1944;-58
2021/03/21 05:56:09;;;;;;;;;;;23.40;33.30;;;;;;1548347;74;1561;-58
2021/03/21 05:58:28;;;;;;;;;;;23.40;33.20;;;;;;1555563;74;759;-59
2021/03/21 06:00:43;;;;;;;;;;;23.40;33.10;;;;;;1548235;74;957;-60
2021/03/21 06:02:49;;;;;;;;;;;23.40;33.10;;;;;;1552337;76;1719;-59
2021/03/21 06:04:53;;;;;;;;;;;23.40;33.10;;;;;;1554027;74;750;-59
2021/03/21 06:07:05;;;;;;;;;;;23.40;33.10;;;;;;1559338;74;753;-60
2021/03/21 06:09:25;;;;;;;;;;;23.40;33.10;;;;;;1557343;74;643;-59
2021/03/21 06:11:34;;;;;;;;;;;23.40;33.20;;;;;;1549890;74;1175;-58
2021/03/21 06:13:55;;;;;;;;;;;23.40;33.00;;;;;;1558346;74;1945;-58
2021/03/21 06:16:11;;;;;;;;;;;23.40;32.90;;;;;;1562523;74;1543;-57
2021/03/21 06:18:29;;;;;;;;;;;23.40;32.80;;;;;;1561468;74;787;-59
2021/03/21 06:20:33;;;;;;;;;;;23.40;33.00;;;;;;1552296;74;746;-58
2021/03/21 06:22:36;;;;;;;;;;;23.40;33.10;;;;;;1559353;76;1233;-59
2021/03/21 06:24:56;;;;;;;;;;;23.40;33.20;;;;;;1564931;74;967;-58
2021/03/21 06:27:15;;;;;;;;;;;23.40;33.10;;;;;;1557962;74;741;-59
2021/03/21 06:29:35;;;;;;;;;;;23.40;32.90;;;;;;1555198;74;705;-60
2021/03/21 06:31:45;;;;;;;;;;;23.40;32.90;;;;;;1564705;74;1223;-57
2021/03/21 06:33:49;;;;;;;;;;;23.40;32.80;;;;;;1557331;74;1946;-58
2021/03/21 06:36:09;;;;;;;;;;;23.40;32.90;;;;;;1554334;74;812;-58
2021/03/21 06:38:12;;;;;;;;;;;23.50;32.80;;;;;;1556414;74;753;-58
2021/03/21 06:40:22;;;;;;;;;;;23.40;32.60;;;;;;1564332;74;796;-60
2021/03/21 06:42:31;;;;;;;;;;;23.40;32.80;;;;;;1565980;74;1811;-59
2021/03/21 06:44:34;;;;;;;;;;;23.40;32.80;;;;;;1553712;74;626;-57
2021/03/21 06:46:38;;;;;;;;;;;23.40;32.70;;;;;;1566304;74;735;-59
2021/03/21 06:48:58;;;;;;;;;;;23.40;32.60;;;;;;1561583;74;1450;-58
2021/03/21 06:51:01;;;;;;;;;;;23.40;32.50;;;;;;1566101;75;755;-59
2021/03/21 06:53:14;;;;;;;;;;;23.50;32.70;;;;;;1563056;74;1955;-58
2021/03/21 06:55:19;;;;;;;;;;;23.50;32.60;;;;;;1566446;75;758;-57
2021/03/21 06:57:26;;;;;;;;;;;23.30;32.50;;;;;;1561321;74;746;-60
2021/03/21 06:59:35;;;;;;;;;;;23.40;32.60;;;;;;1560203;74;776;-58
2021/03/21 07:01:41;;;;;;;;;;;23.40;32.40;;;;;;1562842;74;1169;-59
2021/03/21 07:04:01;;;;;;;;;;;23.50;32.60;;;;;;1564438;74;749;-58
2021/03/21 07:06:21;;;;;;;;;;;23.40;32.40;;;;;;1565825;74;763;-58
2021/03/21 07:08:30;;;;;;;;;;;23.40;32.30;;;;;;1559170;76;745;-59
2021/03/21 07:10:37;;;;;;;;;;;23.40;32.30;;;;;;1565525;74;816;-59
2021/03/21 07:12:56;;;;;;;;;;;23.40;32.30;;;;;;1553168;74;1523;-58
2021/03/21 07:15:03;;;;;;;;;;;23.40;32.20;;;;;;1558861;76;655;-59
2021/03/21 07:17:12;;;;;;;;;;;23.40;32.30;;;;;;1554618;74;1679;-59
2021/03/21 07:19:28;;;;;;;;;;;23.40;32.20;;;;;;1566113;74;703;-59
2021/03/21 07:21:32;;;;;;;;;;;23.50;32.20;;;;;;1563704;74;1196;-59
2021/03/21 07:23:47;;;;;;;;;;;23.50;32.30;;;;;;1564508;74;686;-58
2021/03/21 07:25:51;;;;;;;;;;;23.40;32.20;;;;;;1560759;74;751;-57
2021/03/21 07:28:00;;;;;;;;;;;23.40;32.10;;;;;;1560326;76;743;-60
2021/03/21 07:30:04;;;;;;;;;;;23.40;32.10;;;;;;1563623;76;1499;-59
2021/03/21 07:32:13;;;;;;;;;;;23.30;32.10;;;;;;1565330;74;1506;-58
2021/03/21 07:34:17;;;;;;;;;;;23.40;32.10;;;;;;1550285;74;1941;-57
2021/03/21 07:36:36;;;;;;;;;;;23.40;32.10;;;;;;1566607;74;737;-59
2021/03/21 07:38:40;;;;;;;;;;;23.40;32.10;;;;;;1560667;74;722;-59
2021/03/21 07:40:43;;;;;;;;;;;23.40;32.10;;;;;;1566477;74;783;-59
2021/03/21 07:43:02;;;;;;;;;;;23.40;32.20;;;;;;1558378;75;1691;-58
2021/03/21 07:45:05;;;;;;;;;;;23.40;32.50;;;;;;1559092;74;1472;-59
2021/03/21 07:47:12;;;;;;;;;;;23.40;32.50;;;;;;1561650;74;757;-59
2021/03/21 07:49:27;;;;;;;;;;;23.50;32.40;;;;;;1555666;74;1432;-59
2021/03/21 07:51:30;;;;;;;;;;;23.50;32.70;;;;;;1551672;74;1177;-57
2021/03/21 07:53:46;;;;;;;;;;;23.50;32.70;;;;;;1552365;74;1928;-60
2021/03/21 07:55:49;;;;;;;;;;;23.50;32.30;;;;;;1522382;76;1024;-58
2021/03/21 07:58:08;;;;;;;;;;;23.50;32.20;;;;;;1559674;74;656;-59
2021/03/21 08:00:10;;;;;;;;;;;23.50;31.80;;;;;;1552494;74;657;-59
2021/03/21 08:02:16;;;;;;;;;;;23.50;31.80;;;;;;1547462;74;1173;-60
2021/03/21 08:04:24;;;;;;;;;;;23.50;31.60;;;;;;1557929;74;761;-59
2021/03/21 08:06:30;;;;;;;;;;;23.50;31.30;;;;;;1564196;74;740;-60
2021/03/21 08:08:33;;;;;;;;;;;23.60;31.40;;;;;;1564385;74;802;-60
2021/03/21 08:10:36;;;;;;;;;;;23.60;31.30;;;;;;1556689;74;656;-59
2021/03/21 08:12:40;;;;;;;;;;;23.60;30.90;;;;;;1560276;74;1106;-59
2021/03/21 08:14:42;;;;;;;;;;;23.50;30.90;;;;;;1558803;74;1931;-60
2021/03/21 08:16:46;;;;;;;;;;;23.50;30.90;;;;;;1562682;74;752;-59
2021/03/21 08:18:48;;;;;;;;;;;23.50;30.90;;;;;;1565332;76;739;-60
2021/03/21 08:20:51;;;;;;;;;;;23.50;31.00;;;;;;1554815;75;802;-60
2021/03/21 08:22:57;;;;;;;;;;;23.40;30.90;;;;;;1560011;74;1140;-58
2021/03/21 08:25:01;;;;;;;;;;;23.40;30.90;;;;;;1554592;74;1083;-60
2021/03/21 08:27:04;;;;;;;;;;;23.40;30.80;;;;;;1549121;74;1585;-57
2021/03/21 08:29:09;;;;;;;;;;;23.40;30.90;;;;;;1562988;74;792;-59
2021/03/21 08:31:11;;;;;;;;;;;23.40;30.80;;;;;;1545266;74;753;-58
2021/03/21 08:33:15;;;;;;;;;;;23.40;30.80;;;;;;1522240;76;1938;-60
2021/03/21 08:35:18;;;;;;;;;;;23.40;30.80;;;;;;1519890;76;1799;-60
2021/03/21 08:37:37;;;;;;;;;;;23.30;30.80;;;;;;1513823;76;741;-60
2021/03/21 08:39:40;;;;;;;;;;;23.30;30.70;;;;;;1519047;76;713;-58
2021/03/21 08:41:58;;;;;;;;;;;23.30;30.80;;;;;;1515500;76;1239;-60
2021/03/21 08:44:02;;;;;;;;;;;23.30;30.70;;;;;;1523700;76;682;-59
2021/03/21 08:46:07;;;;;;;;;;;23.30;30.70;;;;;;1544505;74;1694;-58
2021/03/21 08:48:14;;;;;;;;;;;23.40;30.90;;;;;;1545681;74;770;-58
2021/03/21 08:50:29;;;;;;;;;;;23.40;30.90;;;;;;1546810;74;719;-59
2021/03/21 08:52:34;;;;;;;;;;;23.40;30.80;;;;;;1558327;74;1177;-59
2021/03/21 08:54:37;;;;;;;;;;;23.40;30.70;;;;;;1548994;74;1952;-58
2021/03/21 08:56:39;;;;;;;;;;;23.30;30.90;;;;;;1553804;74;808;-60
2021/03/21 08:58:41;;;;;;;;;;;23.40;30.70;;;;;;1555429;75;820;-59
2021/03/21 09:00:43;;;;;;;;;;;23.40;30.80;;;;;;1553541;74;687;-59
2021/03/21 09:02:45;;;;;;;;;;;23.30;30.70;;;;;;1553839;75;1188;-58
2021/03/21 09:04:48;;;;;;;;;;;23.30;30.60;;;;;;1549765;74;760;-59
2021/03/21 09:06:50;;;;;;;;;;;23.40;30.50;;;;;;1549738;74;1178;-59
2021/03/21 09:08:52;;;;;;;;;;;23.40;30.50;;;;;;1554748;75;744;-61
2021/03/21 09:10:56;;;;;;;;;;;23.40;30.60;;;;;;1550583;76;804;-59
2021/03/21 09:13:14;;;;;;;;;;;23.30;30.50;;;;;;1555935;74;1159;-57
2021/03/21 09:15:24;;;;;;;;;;;23.30;30.50;;;;;;1550439;74;1936;-60
2021/03/21 09:17:26;;;;;;;;;;;23.30;30.50;;;;;;1556529;74;739;-59
2021/03/21 09:19:29;;;;;;;;;;;23.30;30.50;;;;;;1556344;76;738;-59
2021/03/21 09:21:31;;;;;;;;;;;23.40;30.60;;;;;;1554037;76;1175;-59
2021/03/21 09:23:34;;;;;;;;;;;23.30;30.50;;;;;;1547951;74;763;-59
2021/03/21 09:25:36;;;;;;;;;;;23.40;30.60;;;;;;1558856;76;794;-59
2021/03/21 09:27:39;;;;;;;;;;;23.30;30.70;;;;;;1526804;76;737;-60
2021/03/21 09:29:41;;;;;;;;;;;23.30;30.50;;;;;;1560115;76;783;-57
2021/03/21 09:31:43;;;;;;;;;;;23.30;30.60;;;;;;1560530;76;1260;-59
2021/03/21 09:33:49;;;;;;;;;;;23.30;30.70;;;;;;1552311;75;1944;-57
2021/03/21 09:35:52;;;;;;;;;;;23.30;30.60;;;;;;1548132;74;787;-58
2021/03/21 09:37:54;;;;;;;;;;;23.30;30.60;;;;;;1576673;73;216587;-78
2021/03/21 09:39:58;;;;;;;;;;;23.40;30.50;;;;;;1569770;74;713;-78
2021/03/21 09:41:59;;;;;;;;;;;23.30;30.50;;;;;;1575714;74;678;-78
2021/03/21 09:44:03;;;;;;;;;;;23.30;30.50;;;;;;1581017;74;787;-78
2021/03/21 09:46:06;;;;;;;;;;;23.30;30.60;;;;;;1580965;74;749;-78
2021/03/21 09:48:10;;;;;;;;;;;23.30;30.70;;;;;;1579326;74;1555;-77
2021/03/21 09:50:13;;;;;;;;;;;23.30;30.50;;;;;;1570529;74;1659;-77
2021/03/21 09:52:23;;;;;;;;;;;23.30;30.60;;;;;;1575196;74;797;-76
2021/03/21 09:54:33;;;;;;;;;;;23.30;30.70;;;;;;1575045;74;1937;-76
2021/03/21 09:56:42;;;;;;;;;;;23.20;30.70;;;;;;1580035;74;787;-76
2021/03/21 09:58:52;;;;;;;;;;;23.20;30.70;;;;;;1575491;74;1632;-76
2021/03/21 10:00:55;;;;;;;;;;;23.30;30.80;;;;;;1580338;74;774;-77
2021/03/21 10:03:05;;;;;;;;;;;23.30;30.80;;;;;;1561345;74;1115;-76
2021/03/21 10:05:27;;;;;;;;;;;23.30;30.80;;;;;;1576992;74;920;-75
2021/03/21 10:07:36;;;;;;;;;;;23.20;30.80;;;;;;1568045;74;1098;-76
2021/03/21 10:09:38;;;;;;;;;;;23.20;30.70;;;;;;1570955;74;761;-77
2021/03/21 10:11:45;;;;;;;;;;;23.30;30.90;;;;;;1581519;75;765;-76
2021/03/21 10:13:47;;;;;;;;;;;23.20;30.70;;;;;;1567854;74;1908;-76
2021/03/21 10:16:07;;;;;;;;;;;23.20;30.70;;;;;;1563279;74;753;-77
2021/03/21 10:18:09;;;;;;;;;;;23.20;30.70;;;;;;1573928;74;1170;-76
2021/03/21 10:20:12;;;;;;;;;;;23.20;30.70;;;;;;1538119;75;1165;-76
2021/03/21 10:22:19;;;;;;;;;;;23.20;30.70;;;;;;1567441;74;802;-77
2021/03/21 10:24:28;;;;;;;;;;;23.30;30.80;;;;;;1573074;74;696;-77
2021/03/21 10:26:31;;;;;;;;;;;23.20;30.80;;;;;;1573204;74;743;-76
2021/03/21 10:28:34;;;;;;;;;;;23.30;31.00;;;;;;1571851;74;1278;-76
2021/03/21 10:30:36;;;;;;;;;;;23.20;30.80;;;;;;1573532;74;793;-77
2021/03/21 10:32:39;;;;;;;;;;;23.20;30.80;;;;;;1539723;75;805;-76
2021/03/21 10:34:41;;;;;;;;;;;23.30;30.80;;;;;;1568325;74;1936;-76
2021/03/21 10:36:44;;;;;;;;;;;23.20;30.80;;;;;;1577098;74;777;-77
2021/03/21 10:38:49;;;;;;;;;;;23.20;30.80;;;;;;1565254;74;1160;-77
2021/03/21 10:40:51;;;;;;;;;;;23.20;30.80;;;;;;1564935;74;743;-76
2021/03/21 10:42:55;;;;;;;;;;;23.20;30.80;;;;;;1572476;74;708;-77
2021/03/21 10:44:57;;;;;;;;;;;23.30;31.00;;;;;;1567191;74;1471;-77
2021/03/21 10:46:59;;;;;;;;;;;23.20;30.80;;;;;;1560678;74;758;-76
2021/03/21 10:49:01;;;;;;;;;;;23.30;30.80;;;;;;1567617;74;1163;-76
2021/03/21 10:51:07;;;;;;;;;;;23.30;30.80;;;;;;1578697;74;660;-79
2021/03/21 10:53:11;;;;;;;;;;;23.40;31.10;;;;;;1573304;74;1532;-78
2021/03/21 10:55:15;;;;;;;;;;;23.30;31.20;;;;;;1568132;74;1950;-79
2021/03/21 10:57:24;;;;;;;;;;;23.30;31.40;;;;;;1587425;74;738;-78
2021/03/21 10:59:26;;;;;;;;;;;23.40;31.60;;;;;;1583892;74;740;-76
2021/03/21 11:01:29;;;;;;;;;;;23.40;31.80;;;;;;1563052;74;678;-76
2021/03/21 11:03:32;;;;;;;;;;;23.50;32.30;;;;;;1568569;74;792;-76
2021/03/21 11:05:34;;;;;;;;;;;23.50;32.10;;;;;;1570447;74;766;-77
2021/03/21 11:07:36;;;;;;;;;;;23.50;31.90;;;;;;1565576;74;1167;-77
2021/03/21 11:09:40;;;;;;;;;;;23.40;31.50;;;;;;1574661;74;825;-76
2021/03/21 11:11:42;;;;;;;;;;;23.50;31.50;;;;;;1564032;74;1190;-77
2021/03/21 11:13:44;;;;;;;;;;;23.50;31.30;;;;;;1573721;74;623;-76
2021/03/21 11:15:46;;;;;;;;;;;23.40;31.20;;;;;;1575844;74;1961;-77
2021/03/21 11:17:48;;;;;;;;;;;23.50;31.30;;;;;;1568350;74;1235;-76
2021/03/21 11:19:51;;;;;;;;;;;23.50;31.80;;;;;;1565173;74;760;-77
2021/03/21 11:21:53;;;;;;;;;;;23.50;32.10;;;;;;1578082;74;753;-77
2021/03/21 11:23:59;;;;;;;;;;;23.50;31.80;;;;;;1568600;74;779;-81
2021/03/21 11:26:01;;;;;;;;;;;23.60;31.50;;;;;;1580009;74;672;-78
2021/03/21 11:28:03;;;;;;;;;;;23.60;30.00;;;;;;1577370;74;1227;-76
2021/03/21 11:30:09;;;;;;;;;;;23.60;30.70;;;;;;1560219;74;807;-77
2021/03/21 11:32:13;;;;;;;;;;;23.60;30.20;;;;;;1558573;74;1663;-77
2021/03/21 11:34:16;;;;;;;;;;;23.50;30.20;;;;;;1555514;74;1933;-76
2021/03/21 11:36:22;;;;;;;;;;;23.50;30.20;;;;;;1568324;74;730;-77
2021/03/21 11:38:29;;;;;;;;;;;23.50;30.40;;;;;;1569160;74;1121;-78
2021/03/21 11:40:32;;;;;;;;;;;23.40;30.30;;;;;;1571707;74;726;-78
2021/03/21 11:42:35;;;;;;;;;;;23.50;30.60;;;;;;1573890;74;793;-77
2021/03/21 11:44:37;;;;;;;;;;;23.50;30.70;;;;;;1572498;74;748;-77
2021/03/21 11:46:38;;;;;;;;;;;23.40;30.60;;;;;;1561554;74;745;-76
2021/03/21 11:48:40;;;;;;;;;;;23.40;30.70;;;;;;1566808;74;1111;-76
2021/03/21 11:50:43;;;;;;;;;;;23.40;30.70;;;;;;1564828;74;764;-76
2021/03/21 11:52:45;;;;;;;;;;;23.40;30.70;;;;;;1564051;74;748;-76
2021/03/21 11:54:47;;;;;;;;;;;23.40;30.90;;;;;;1573316;74;1941;-77
2021/03/21 11:56:50;;;;;;;;;;;23.40;30.70;;;;;;1577917;74;799;-77
2021/03/21 11:58:54;;;;;;;;;;;23.30;30.70;;;;;;1544508;75;1178;-77
2021/03/21 12:01:02;;;;;;;;;;;23.40;30.70;;;;;;1566787;75;772;-76
2021/03/21 12:03:09;;;;;;;;;;;23.40;30.70;;;;;;1540093;75;802;-76
2021/03/21 12:05:18;;;;;;;;;;;23.40;30.70;;;;;;1552603;75;748;-76
2021/03/21 12:07:22;;;;;;;;;;;23.40;30.70;;;;;;1553718;75;774;-76
2021/03/21 12:09:36;;;;;;;;;;;23.30;30.60;;;;;;1548092;75;1066;-76
2021/03/21 12:11:42;;;;;;;;;;;23.30;30.70;;;;;;1580245;74;896;-76
2021/03/21 12:13:44;;;;;;;;;;;23.30;30.70;;;;;;1575010;74;744;-77
2021/03/21 12:15:46;;;;;;;;;;;23.30;30.70;;;;;;1567272;74;1949;-77
2021/03/21 12:17:48;;;;;;;;;;;23.30;30.60;;;;;;1564438;74;1189;-77
2021/03/21 12:19:50;;;;;;;;;;;23.30;30.60;;;;;;1570046;74;783;-78
2021/03/21 12:21:53;;;;;;;;;;;23.20;30.50;;;;;;1568443;74;760;-78
2021/03/21 12:23:56;;;;;;;;;;;23.30;30.60;;;;;;1571321;74;812;-77
2021/03/21 12:26:17;;;;;;;;;;;23.20;30.50;;;;;;1568330;74;776;-77
2021/03/21 12:28:22;;;;;;;;;;;23.20;30.60;;;;;;1568136;74;1211;-78
2021/03/21 12:30:37;;;;;;;;;;;23.30;30.70;;;;;;1568347;74;810;-79